Time;durP1;ratioP1;P1;durP2;ratioP2;P2;SDS_P1;SDS_P2;PMS_P1;PMS_P2;Temp;Humidity;BMP_temperature;BMP_pressure;BME280_temperature;BME280_humidity;BME280_pressure;Samples;Min_cycle;Max_cycle;Signal;HPM_P1;HPM_P2
2024/03/14 00:02:42;;;;;;;;;;;;;;;16.05;45.69;98981.71;67472;1283;1015903;-65
2024/03/14 00:05:45;;;;;;;;;;;;;;;16.12;45.32;98980.66;67513;1283;1016903;-62
2024/03/14 00:08:47;;;;;;;;;;;;;;;16.01;45.57;98976.73;67501;1283;1016230;-66
2024/03/14 00:11:50;;;;;;;;;;;;;;;16.01;45.45;98975.66;67493;1283;1016439;-66
2024/03/14 00:14:53;;;;;;;;;;;;;;;15.91;45.78;98972.10;67467;1283;1016514;-63
2024/03/14 00:17:56;;;;;;;;;;;;;;;16.06;45.50;98972.80;67483;1283;1016511;-63
2024/03/14 00:20:58;;;;;;;;;;;;;;;16.14;45.30;98976.37;67430;1283;1016408;-67
2024/03/14 00:24:01;;;;;;;;;;;;;;;16.10;45.48;98972.67;67480;1283;1016090;-67
2024/03/14 00:27:03;;;;;;;;;;;;;;;16.17;45.37;98973.13;67528;1283;1016237;-62
2024/03/14 00:30:08;;;;;;;;;;;;;;;16.12;45.57;98972.98;67515;1283;1016354;-63
2024/03/14 00:33:11;;;;;;;;;;;;;;;16.00;45.88;98976.45;67524;1283;1016158;-67
2024/03/14 00:36:14;;;;;;;;;;;;;;;15.93;45.99;98978.83;67501;1283;1016463;-63
2024/03/14 00:39:17;;;;;;;;;;;;;;;15.94;46.05;98979.07;67487;1283;1016481;-67
2024/03/14 00:42:20;;;;;;;;;;;;;;;16.06;45.88;98979.88;67511;1283;1019114;-65
2024/03/14 00:45:22;;;;;;;;;;;;;;;16.09;45.70;98978.24;67492;1283;1016267;-67
2024/03/14 00:48:25;;;;;;;;;;;;;;;15.98;45.94;98976.95;67468;1283;1016411;-67
2024/03/14 00:51:27;;;;;;;;;;;;;;;16.07;45.72;98974.48;67449;1283;1016440;-66
2024/03/14 00:54:30;;;;;;;;;;;;;;;16.16;45.36;98971.67;67527;1283;1016447;-67
2024/03/14 00:57:32;;;;;;;;;;;;;;;16.00;45.64;98975.79;67470;1283;1019222;-63
2024/03/14 01:00:35;;;;;;;;;;;;;;;15.69;46.27;98975.23;67455;1283;1016500;-65
2024/03/14 01:03:37;;;;;;;;;;;;;;;15.03;47.47;98971.88;67498;1283;1017937;-67
2024/03/14 01:06:40;;;;;;;;;;;;;;;14.98;47.87;98968.91;67499;1283;1016468;-66
2024/03/14 01:09:42;;;;;;;;;;;;;;;14.78;48.36;98966.92;67471;1283;1018659;-65
2024/03/14 01:12:46;;;;;;;;;;;;;;;14.97;47.89;98961.80;67471;1283;1016419;-62
2024/03/14 01:15:48;;;;;;;;;;;;;;;14.81;48.20;98956.46;67458;1283;1016167;-67
2024/03/14 01:18:50;;;;;;;;;;;;;;;14.74;48.46;98959.65;67449;1283;1016529;-68
2024/03/14 01:21:53;;;;;;;;;;;;;;;15.12;47.44;98957.84;67459;1283;1016893;-65
2024/03/14 01:24:55;;;;;;;;;;;;;;;14.88;48.05;98956.31;67473;1283;1018927;-63
2024/03/14 01:27:58;;;;;;;;;;;;;;;14.96;48.03;98956.42;67494;1283;1016157;-63
2024/03/14 01:31:01;;;;;;;;;;;;;;;14.90;47.94;98957.60;67461;1283;1016926;-64
2024/03/14 01:34:03;;;;;;;;;;;;;;;14.81;47.90;98952.80;67438;1283;1016379;-63
2024/03/14 01:37:06;;;;;;;;;;;;;;;15.25;47.15;98950.45;67465;1283;1016565;-67
2024/03/14 01:40:12;;;;;;;;;;;;;;;15.51;46.44;98946.33;67441;1283;1018540;-67
2024/03/14 01:43:15;;;;;;;;;;;;;;;15.51;46.49;98946.15;67453;1283;1019656;-63
2024/03/14 01:46:17;;;;;;;;;;;;;;;14.90;47.91;98943.44;67469;1283;1016199;-67
2024/03/14 01:49:20;;;;;;;;;;;;;;;14.99;47.80;98941.34;67500;1283;1016313;-66
2024/03/14 01:52:24;;;;;;;;;;;;;;;14.61;48.64;98943.88;67483;1284;1016491;-63
2024/03/14 01:55:27;;;;;;;;;;;;;;;14.51;48.70;98941.65;67506;1283;1016890;-66
2024/03/14 01:58:29;;;;;;;;;;;;;;;14.91;47.43;98935.51;67456;1283;1016408;-67
2024/03/14 02:01:34;;;;;;;;;;;;;;;14.79;47.94;98936.20;67502;1282;1016397;-66
2024/03/14 02:04:36;;;;;;;;;;;;;;;14.54;48.49;98937.41;67517;1282;1016432;-66
2024/03/14 02:07:39;;;;;;;;;;;;;;;14.31;49.06;98932.59;67518;1283;1019233;-67
2024/03/14 02:10:41;;;;;;;;;;;;;;;14.34;48.94;98928.17;67500;1283;1016487;-67
2024/03/14 02:13:44;;;;;;;;;;;;;;;14.31;49.18;98927.70;67481;1283;1016539;-65
2024/03/14 02:16:47;;;;;;;;;;;;;;;14.29;49.41;98929.90;67521;1283;1016384;-67
2024/03/14 02:19:50;;;;;;;;;;;;;;;14.45;48.89;98923.14;67491;1282;1016175;-66
2024/03/14 02:22:52;;;;;;;;;;;;;;;14.74;47.93;98923.43;67515;1283;1016400;-64
2024/03/14 02:25:55;;;;;;;;;;;;;;;14.62;48.09;98930.70;67526;1282;1016504;-63
2024/03/14 02:28:57;;;;;;;;;;;;;;;14.50;48.19;98930.26;67502;1283;1016419;-67
2024/03/14 02:32:00;;;;;;;;;;;;;;;14.50;48.10;98931.73;67507;1283;1016447;-67
2024/03/14 02:35:03;;;;;;;;;;;;;;;14.54;47.74;98927.89;67528;1283;1019552;-67
2024/03/14 02:38:07;;;;;;;;;;;;;;;14.74;47.18;98926.41;67513;1282;1018826;-62
2024/03/14 02:41:09;;;;;;;;;;;;;;;15.29;45.71;98925.83;67531;1283;1016443;-67
2024/03/14 02:44:13;;;;;;;;;;;;;;;15.33;45.61;98928.50;67481;1283;1016289;-67
2024/03/14 02:47:17;;;;;;;;;;;;;;;14.61;47.24;98926.65;67517;1282;1016409;-64
2024/03/14 02:50:19;;;;;;;;;;;;;;;14.83;46.90;98927.27;67528;1283;1016360;-67
2024/03/14 02:53:23;;;;;;;;;;;;;;;15.30;45.68;98927.70;67499;1283;1016404;-67
2024/03/14 02:56:28;;;;;;;;;;;;;;;15.21;45.56;98924.39;67485;1283;1016395;-67
2024/03/14 02:59:32;;;;;;;;;;;;;;;15.10;45.56;98927.67;67518;1283;1016180;-67
2024/03/14 03:02:34;;;;;;;;;;;;;;;15.05;45.62;98928.77;67486;1283;1016235;-65
2024/03/14 03:05:37;;;;;;;;;;;;;;;14.99;45.81;98927.83;67500;1283;1016486;-62
2024/03/14 03:08:39;;;;;;;;;;;;;;;15.07;45.58;98924.73;67507;1282;1018959;-64
2024/03/14 03:11:41;;;;;;;;;;;;;;;15.06;45.53;98926.10;67493;1282;1016943;-67
2024/03/14 03:14:44;;;;;;;;;;;;;;;15.04;45.54;98922.33;67485;1283;1016412;-65
2024/03/14 03:17:47;;;;;;;;;;;;;;;15.00;45.57;98923.73;67498;1283;1016479;-65
2024/03/14 03:20:51;;;;;;;;;;;;;;;14.96;45.66;98920.67;67503;1282;1016391;-67
2024/03/14 03:23:54;;;;;;;;;;;;;;;14.83;45.97;98925.20;67471;1282;1016338;-66
2024/03/14 03:26:59;;;;;;;;;;;;;;;14.78;45.86;98926.10;67523;1283;1016393;-65
2024/03/14 03:30:01;;;;;;;;;;;;;;;14.67;45.84;98920.98;67550;1283;1016345;-66
2024/03/14 03:33:04;;;;;;;;;;;;;;;14.66;45.76;98922.64;67492;1283;1018302;-66
2024/03/14 03:36:06;;;;;;;;;;;;;;;14.65;45.89;98920.77;67504;1282;1016287;-67
2024/03/14 03:39:12;;;;;;;;;;;;;;;14.55;46.05;98923.75;67502;1283;1016083;-67
2024/03/14 03:42:15;;;;;;;;;;;;;;;14.58;45.59;98928.45;67520;1283;1016461;-63
2024/03/14 03:45:17;;;;;;;;;;;;;;;14.46;46.05;98926.02;67544;1283;1018401;-66
2024/03/14 03:48:20;;;;;;;;;;;;;;;13.87;47.38;98934.45;67483;1283;1016416;-67
2024/03/14 03:51:23;;;;;;;;;;;;;;;13.80;47.64;98934.05;67490;1283;1016027;-67
2024/03/14 03:54:25;;;;;;;;;;;;;;;13.67;48.08;98936.36;67518;1283;1016260;-64
2024/03/14 03:57:29;;;;;;;;;;;;;;;14.27;46.78;98932.86;67499;1283;1018929;-65
2024/03/14 04:00:41;;;;;;;;;;;;;;;14.59;46.06;98932.63;67526;1283;1016437;-67
2024/03/14 04:03:43;;;;;;;;;;;;;;;14.65;45.38;98933.96;67523;1282;1016311;-67
2024/03/14 04:06:48;;;;;;;;;;;;;;;14.65;45.43;98931.48;67520;1282;1019333;-67
2024/03/14 04:09:51;;;;;;;;;;;;;;;14.62;45.58;98933.48;67504;1282;1016424;-63
2024/03/14 04:12:54;;;;;;;;;;;;;;;14.17;46.44;98935.77;67516;1282;1016681;-63
2024/03/14 04:15:56;;;;;;;;;;;;;;;13.69;47.59;98945.75;67531;1282;1016498;-62
2024/03/14 04:18:59;;;;;;;;;;;;;;;13.66;47.52;98944.35;67478;1283;1016341;-66
2024/03/14 04:22:04;;;;;;;;;;;;;;;13.63;47.88;98948.44;67523;1282;1016811;-63
2024/03/14 04:25:10;;;;;;;;;;;;;;;14.03;46.90;98944.48;67478;1282;1016391;-66
2024/03/14 04:28:13;;;;;;;;;;;;;;;14.36;46.37;98943.98;67502;1283;1017277;-63
2024/03/14 04:31:17;;;;;;;;;;;;;;;14.45;46.38;98941.73;67491;1283;1016396;-65
2024/03/14 04:34:21;;;;;;;;;;;;;;;14.53;46.25;98941.33;67515;1283;1016355;-67
2024/03/14 04:37:23;;;;;;;;;;;;;;;14.60;46.25;98946.48;67469;1282;1016374;-67
2024/03/14 04:40:26;;;;;;;;;;;;;;;14.53;46.26;98947.52;67482;1283;1018616;-65
2024/03/14 04:43:28;;;;;;;;;;;;;;;14.60;46.01;98951.02;67501;1283;1016408;-66
2024/03/14 04:46:31;;;;;;;;;;;;;;;14.56;46.03;98949.75;67505;1283;1016423;-66
2024/03/14 04:49:34;;;;;;;;;;;;;;;14.44;45.78;98951.81;67485;1283;1016234;-67
2024/03/14 04:52:36;;;;;;;;;;;;;;;14.31;46.04;98949.27;67468;1283;1016844;-64
2024/03/14 04:55:39;;;;;;;;;;;;;;;14.42;45.96;98949.93;67514;1283;1018693;-63
2024/03/14 04:58:42;;;;;;;;;;;;;;;13.78;47.26;98952.78;67486;1283;1015552;-66
2024/03/14 05:01:45;;;;;;;;;;;;;;;13.74;47.88;98957.00;67547;1283;1016051;-66
2024/03/14 05:04:48;;;;;;;;;;;;;;;13.76;47.89;98960.20;67468;1282;1016143;-63
2024/03/14 05:07:51;;;;;;;;;;;;;;;13.64;48.41;98963.14;67522;1283;1016432;-66
2024/03/14 05:10:53;;;;;;;;;;;;;;;13.68;48.47;98963.36;67533;1282;1015966;-64
2024/03/14 05:13:57;;;;;;;;;;;;;;;14.13;47.27;98962.97;67507;1282;1016307;-64
2024/03/14 05:16:59;;;;;;;;;;;;;;;13.81;47.79;98966.98;67510;1283;1017262;-63
2024/03/14 05:20:05;;;;;;;;;;;;;;;13.67;48.09;98969.92;67486;1282;1016100;-63
2024/03/14 05:23:07;;;;;;;;;;;;;;;13.56;48.28;98967.39;67500;1282;1016504;-67
2024/03/14 05:26:10;;;;;;;;;;;;;;;13.94;47.66;98971.33;65064;1282;5381990;-62
2024/03/14 05:29:13;;;;;;;;;;;;;;;14.39;46.86;98974.23;67530;1283;1016394;-67
2024/03/14 05:32:15;;;;;;;;;;;;;;;14.58;46.71;98970.36;67526;1282;1016800;-66
2024/03/14 05:35:19;;;;;;;;;;;;;;;14.79;46.56;98968.80;67516;1282;1016453;-63
2024/03/14 05:38:22;;;;;;;;;;;;;;;14.67;46.87;98967.77;67525;1282;1016351;-66
2024/03/14 05:41:24;;;;;;;;;;;;;;;14.86;46.36;98969.67;67528;1283;1019352;-65
2024/03/14 05:44:27;;;;;;;;;;;;;;;14.95;46.36;98972.36;67469;1282;1016364;-67
2024/03/14 05:47:30;;;;;;;;;;;;;;;14.94;46.52;98976.30;67532;1283;1016525;-65
2024/03/14 05:50:32;;;;;;;;;;;;;;;14.99;46.42;98978.34;67500;1282;1016387;-63
2024/03/14 05:53:35;;;;;;;;;;;;;;;15.07;46.54;98979.31;67484;1283;1016185;-67
2024/03/14 05:56:37;;;;;;;;;;;;;;;15.14;46.55;98985.70;67493;1283;1016490;-65
2024/03/14 05:59:40;;;;;;;;;;;;;;;15.26;46.65;98989.38;67498;1282;1017045;-65
2024/03/14 06:02:42;;;;;;;;;;;;;;;14.82;47.79;98991.24;67520;1282;1016506;-65
2024/03/14 06:05:45;;;;;;;;;;;;;;;15.35;46.73;98993.16;67517;1283;1016483;-66
2024/03/14 06:08:48;;;;;;;;;;;;;;;15.59;46.66;98993.98;67483;1282;1016484;-65
2024/03/14 06:11:51;;;;;;;;;;;;;;;15.72;46.66;98993.45;67517;1283;1016472;-65
2024/03/14 06:14:53;;;;;;;;;;;;;;;15.90;46.45;98998.27;67490;1283;1016445;-62
2024/03/14 06:17:56;;;;;;;;;;;;;;;15.97;46.52;98999.08;67507;1283;1018851;-64
2024/03/14 06:20:59;;;;;;;;;;;;;;;15.74;47.60;98998.13;67495;1282;1016186;-63
2024/03/14 06:24:02;;;;;;;;;;;;;;;15.80;47.69;98998.02;67508;1282;1016409;-66
2024/03/14 06:27:05;;;;;;;;;;;;;;;16.40;46.37;98998.27;67505;1283;1016596;-67
2024/03/14 06:30:09;;;;;;;;;;;;;;;15.98;47.59;99002.92;67480;1282;1018613;-63
2024/03/14 06:33:11;;;;;;;;;;;;;;;16.08;47.81;99007.27;67490;1283;1016200;-67
2024/03/14 06:36:15;;;;;;;;;;;;;;;16.62;46.83;99008.47;67509;1282;1016419;-67
2024/03/14 06:39:20;;;;;;;;;;;;;;;16.36;47.62;99006.00;67503;1283;1015791;-65
2024/03/14 06:42:23;;;;;;;;;;;;;;;16.38;47.62;99005.35;67515;1282;1016367;-67
2024/03/14 06:45:25;;;;;;;;;;;;;;;16.33;48.12;99007.48;67508;1282;1018091;-67
2024/03/14 06:48:28;;;;;;;;;;;;;;;16.52;48.21;99008.95;67520;1282;1016445;-63
2024/03/14 06:51:31;;;;;;;;;;;;;;;16.87;47.45;99010.80;67486;1283;1019755;-63
2024/03/14 06:54:34;;;;;;;;;;;;;;;16.85;47.85;99014.70;67483;1283;1016588;-66
2024/03/14 06:57:39;;;;;;;;;;;;;;;16.90;47.69;99019.35;67536;1282;1016517;-67
2024/03/14 07:00:42;;;;;;;;;;;;;;;17.09;47.34;99015.48;67508;1283;1016468;-67
2024/03/14 07:03:45;;;;;;;;;;;;;;;17.48;46.89;99015.89;67522;1283;1016439;-66
2024/03/14 07:06:48;;;;;;;;;;;;;;;17.45;47.15;99022.89;67501;1283;1016355;-65
2024/03/14 07:09:51;;;;;;;;;;;;;;;17.56;46.86;99024.41;67519;1282;1016520;-66
2024/03/14 07:12:57;;;;;;;;;;;;;;;17.28;47.63;99025.21;67530;1283;1016426;-67
2024/03/14 07:16:00;;;;;;;;;;;;;;;17.68;47.03;99024.56;67495;1282;1016989;-63
2024/03/14 07:19:02;;;;;;;;;;;;;;;18.32;45.83;99024.09;67473;1282;1016095;-67
2024/03/14 07:22:05;;;;;;;;;;;;;;;17.94;46.56;99027.11;67522;1281;1016522;-66
2024/03/14 07:25:09;;;;;;;;;;;;;;;17.83;46.87;99029.88;67485;1283;1016508;-65
2024/03/14 07:28:12;;;;;;;;;;;;;;;18.25;46.28;99027.59;67522;1283;1016349;-66
2024/03/14 07:31:16;;;;;;;;;;;;;;;18.36;46.08;99028.56;67505;1282;1016227;-66
2024/03/14 07:34:19;;;;;;;;;;;;;;;18.44;46.23;99027.98;67499;1282;1018686;-67
2024/03/14 07:37:23;;;;;;;;;;;;;;;18.59;46.21;99025.63;67506;1283;1017822;-66
2024/03/14 07:40:32;;;;;;;;;;;;;;;19.10;45.32;99027.69;67530;1283;1016930;-64
2024/03/14 07:43:35;;;;;;;;;;;;;;;19.18;45.10;99029.05;67496;1282;1016438;-66
2024/03/14 07:46:37;;;;;;;;;;;;;;;19.37;44.59;99030.80;67558;1283;1016060;-65
2024/03/14 07:49:40;;;;;;;;;;;;;;;18.89;45.41;99034.77;67542;1282;1016109;-64
2024/03/14 07:52:44;;;;;;;;;;;;;;;19.04;45.57;99033.20;67509;1283;1016083;-65
2024/03/14 07:55:47;;;;;;;;;;;;;;;19.37;45.21;99034.31;67499;1283;1016856;-64
2024/03/14 07:58:51;;;;;;;;;;;;;;;19.65;44.83;99033.73;67468;1282;1016063;-63
2024/03/14 08:01:53;;;;;;;;;;;;;;;19.81;44.43;99031.77;67498;1283;1016360;-63
2024/03/14 08:04:57;;;;;;;;;;;;;;;20.45;43.30;99031.08;67526;1283;1016455;-64
2024/03/14 08:08:01;;;;;;;;;;;;;;;20.31;43.87;99034.14;67487;1283;1016397;-65
2024/03/14 08:11:04;;;;;;;;;;;;;;;20.30;42.55;99031.05;67468;1282;1016533;-65
2024/03/14 08:14:07;;;;;;;;;;;;;;;19.79;43.69;99030.41;67525;1282;1016479;-67
2024/03/14 08:17:13;;;;;;;;;;;;;;;19.62;43.42;99027.04;67525;1283;1016715;-66
2024/03/14 08:20:16;;;;;;;;;;;;;;;19.10;43.45;99023.48;67504;1283;1016307;-67
2024/03/14 08:23:19;;;;;;;;;;;;;;;18.85;44.63;99035.29;67530;1283;1016368;-64
2024/03/14 08:26:21;;;;;;;;;;;;;;;18.97;44.35;99034.16;67534;1283;1016531;-63
2024/03/14 08:29:25;;;;;;;;;;;;;;;19.40;43.13;99032.38;67503;1283;1016754;-65
2024/03/14 08:32:28;;;;;;;;;;;;;;;19.82;42.87;99035.41;67476;1283;1016516;-68
2024/03/14 08:35:32;;;;;;;;;;;;;;;20.15;41.89;99030.89;67523;1283;1016478;-66
2024/03/14 08:38:34;;;;;;;;;;;;;;;20.17;42.18;99031.73;67506;1283;1016473;-67
2024/03/14 08:41:37;;;;;;;;;;;;;;;20.50;42.25;99031.86;67521;1282;1016422;-67
2024/03/14 08:44:39;;;;;;;;;;;;;;;20.81;41.99;99032.90;67528;1282;1016756;-67
2024/03/14 08:47:42;;;;;;;;;;;;;;;21.00;41.60;99036.17;67492;1283;1016212;-63
2024/03/14 08:50:45;;;;;;;;;;;;;;;21.28;40.95;99032.85;67540;1283;1016360;-65
2024/03/14 08:57:09;;;;;;;;;;;;;;;21.99;40.75;99029.27;67532;1283;1016643;-67
2024/03/14 09:00:17;;;;;;;;;;;;;;;22.33;39.31;99030.32;67522;1283;1016505;-66
2024/03/14 09:03:20;;;;;;;;;;;;;;;22.05;39.72;99034.01;67473;1283;1016056;-65
2024/03/14 09:06:22;;;;;;;;;;;;;;;22.08;39.91;99035.38;67522;1282;1016542;-65
2024/03/14 09:09:27;;;;;;;;;;;;;;;22.15;39.03;99037.05;67527;1283;1016506;-64
2024/03/14 09:12:29;;;;;;;;;;;;;;;22.53;39.48;99037.44;67523;1282;1016505;-66
2024/03/14 09:15:32;;;;;;;;;;;;;;;22.71;39.37;99039.98;67480;1282;1016715;-64
2024/03/14 09:18:36;;;;;;;;;;;;;;;23.00;38.79;99035.58;67492;1282;1016572;-66
2024/03/14 09:21:38;;;;;;;;;;;;;;;23.25;37.97;99033.77;67502;1282;1016537;-67
2024/03/14 09:24:41;;;;;;;;;;;;;;;23.52;37.96;99030.19;67492;1283;1016498;-65
2024/03/14 09:27:43;;;;;;;;;;;;;;;23.77;37.71;99032.64;67526;1283;1016393;-65
2024/03/14 09:30:46;;;;;;;;;;;;;;;23.72;36.92;99029.79;67551;1283;1016350;-66
2024/03/14 09:33:49;;;;;;;;;;;;;;;23.14;37.01;99032.46;67517;1283;1016130;-67
2024/03/14 09:36:53;;;;;;;;;;;;;;;22.44;38.31;99030.05;67541;1283;1016460;-64
2024/03/14 09:39:58;;;;;;;;;;;;;;;21.94;38.89;99031.13;67537;1282;1016236;-64
2024/03/14 09:43:01;;;;;;;;;;;;;;;21.79;39.01;99029.88;67511;1283;1016239;-64
2024/03/14 09:46:05;;;;;;;;;;;;;;;21.91;38.36;99032.08;67536;1283;1016249;-65
2024/03/14 09:49:11;;;;;;;;;;;;;;;21.47;38.85;99034.61;67532;1283;1016388;-66
2024/03/14 09:52:14;;;;;;;;;;;;;;;21.34;39.49;99030.98;67529;1283;1018136;-67
2024/03/14 09:55:17;;;;;;;;;;;;;;;21.68;39.43;99031.20;67515;1283;1016056;-67
2024/03/14 09:58:21;;;;;;;;;;;;;;;22.17;37.54;99027.92;67538;1283;1016553;-65
2024/03/14 10:01:25;;;;;;;;;;;;;;;21.47;38.54;99035.31;67542;1283;1016328;-65
2024/03/14 10:04:28;;;;;;;;;;;;;;;22.06;38.59;99035.40;67516;1283;1016248;-67
2024/03/14 10:07:30;;;;;;;;;;;;;;;22.25;37.89;99036.48;67548;1283;1018229;-67
2024/03/14 10:10:34;;;;;;;;;;;;;;;22.07;38.63;99035.92;67510;1283;1018074;-64
2024/03/14 10:13:37;;;;;;;;;;;;;;;22.26;38.54;99035.80;67486;1283;1016700;-67
2024/03/14 10:16:40;;;;;;;;;;;;;;;22.64;38.56;99032.50;67522;1282;1016245;-68
2024/03/14 10:19:45;;;;;;;;;;;;;;;23.32;38.02;99026.21;67518;1283;1016484;-64
2024/03/14 10:22:48;;;;;;;;;;;;;;;24.08;36.02;99024.51;67498;1283;1019517;-67
2024/03/14 10:25:53;;;;;;;;;;;;;;;23.72;35.55;99021.70;67521;1283;1018902;-67
2024/03/14 10:28:57;;;;;;;;;;;;;;;23.25;36.73;99025.59;67528;1282;1016156;-67
2024/03/14 10:32:00;;;;;;;;;;;;;;;23.27;36.76;99026.94;67532;1283;1016342;-67
2024/03/14 10:35:03;;;;;;;;;;;;;;;23.24;36.64;99024.64;67578;1282;1017395;-67
2024/03/14 10:38:07;;;;;;;;;;;;;;;22.96;36.27;99022.11;67517;1283;1016313;-67
2024/03/14 10:41:09;;;;;;;;;;;;;;;23.77;36.44;99025.52;67520;1282;1016443;-67
2024/03/14 10:44:12;;;;;;;;;;;;;;;23.68;36.50;99022.23;67495;1283;1016498;-65
2024/03/14 10:47:15;;;;;;;;;;;;;;;24.08;36.39;99017.52;67533;1283;1016255;-65
2024/03/14 10:50:19;;;;;;;;;;;;;;;24.48;35.99;99013.65;67519;1282;1016480;-67
2024/03/14 10:53:22;;;;;;;;;;;;;;;25.56;34.72;99010.27;67512;1283;1016320;-66
2024/03/14 10:56:25;;;;;;;;;;;;;;;25.23;33.39;99010.08;67484;1283;1015731;-65
2024/03/14 10:59:28;;;;;;;;;;;;;;;24.84;33.39;99010.38;67516;1283;1016449;-65
2024/03/14 11:02:30;;;;;;;;;;;;;;;24.64;33.82;99006.61;67519;1283;1016350;-67
2024/03/14 11:05:33;;;;;;;;;;;;;;;24.81;33.92;99003.25;67543;1283;1017435;-64
2024/03/14 11:08:39;;;;;;;;;;;;;;;25.21;32.49;98998.65;67548;1283;1016259;-64
2024/03/14 11:11:41;;;;;;;;;;;;;;;24.72;32.29;98997.63;67512;1283;1016276;-67
2024/03/14 11:14:44;;;;;;;;;;;;;;;24.59;32.29;98991.77;67528;1283;1016218;-64
2024/03/14 11:17:50;;;;;;;;;;;;;;;24.84;32.62;98993.16;67536;1282;1016415;-66
2024/03/14 11:20:53;;;;;;;;;;;;;;;24.55;31.30;98986.84;67528;1283;1018233;-66
2024/03/14 11:23:56;;;;;;;;;;;;;;;24.29;32.87;98991.38;67532;1283;1016495;-64
2024/03/14 11:26:59;;;;;;;;;;;;;;;24.69;32.51;98988.38;67546;1283;1016316;-67
2024/03/14 11:30:03;;;;;;;;;;;;;;;24.96;33.52;98982.63;67539;1283;1016460;-64
2024/03/14 11:33:12;;;;;;;;;;;;;;;25.81;33.09;98975.91;67583;1283;1016454;-66
2024/03/14 11:36:15;;;;;;;;;;;;;;;26.29;32.45;98973.77;67577;1283;1017792;-67
2024/03/14 11:39:20;;;;;;;;;;;;;;;26.62;31.35;98966.60;67530;1283;1016489;-67
2024/03/14 11:42:23;;;;;;;;;;;;;;;26.86;31.57;98962.50;67557;1283;1016212;-66
2024/03/14 11:45:26;;;;;;;;;;;;;;;27.21;31.36;98955.27;67528;1283;1017177;-68
2024/03/14 11:48:29;;;;;;;;;;;;;;;26.42;30.27;98955.52;67556;1283;1016124;-67
2024/03/14 11:51:34;;;;;;;;;;;;;;;25.98;31.99;98958.45;67523;1283;1016393;-66
2024/03/14 11:54:37;;;;;;;;;;;;;;;25.96;32.12;98954.30;67525;1283;1016596;-66
2024/03/14 11:57:40;;;;;;;;;;;;;;;26.35;31.42;98950.06;67540;1282;1016271;-67
2024/03/14 12:00:47;;;;;;;;;;;;;;;26.50;31.24;98950.38;67539;1283;1016354;-68
2024/03/14 12:03:50;;;;;;;;;;;;;;;26.60;31.40;98950.55;67532;1283;1016329;-67
2024/03/14 12:06:52;;;;;;;;;;;;;;;26.90;31.10;98950.23;67519;1282;1016129;-67
2024/03/14 12:09:55;;;;;;;;;;;;;;;26.88;30.71;98945.95;67512;1283;1018742;-65
2024/03/14 12:12:57;;;;;;;;;;;;;;;27.37;30.51;98941.33;67565;1282;1018460;-64
2024/03/14 12:16:01;;;;;;;;;;;;;;;27.51;30.56;98946.67;67543;1282;1016492;-64
2024/03/14 12:19:04;;;;;;;;;;;;;;;27.67;30.50;98944.23;67529;1283;1016363;-64
2024/03/14 12:22:07;;;;;;;;;;;;;;;28.37;29.49;98941.95;67525;1283;1016190;-67
2024/03/14 12:25:09;;;;;;;;;;;;;;;28.48;29.12;98934.90;67557;1282;1016653;-67
2024/03/14 12:28:14;;;;;;;;;;;;;;;28.66;29.12;98933.67;67550;1283;1016208;-66
2024/03/14 12:31:17;;;;;;;;;;;;;;;28.47;29.02;98931.33;67538;1282;1016508;-67
2024/03/14 12:34:20;;;;;;;;;;;;;;;28.01;28.65;98930.63;67556;1282;1016890;-66
2024/03/14 12:37:24;;;;;;;;;;;;;;;27.44;29.41;98933.83;67523;1283;1016429;-66
2024/03/14 12:40:26;;;;;;;;;;;;;;;27.07;29.57;98928.90;67521;1283;1016328;-65
2024/03/14 12:43:30;;;;;;;;;;;;;;;26.39;29.96;98931.17;67536;1283;1016509;-65
2024/03/14 12:46:33;;;;;;;;;;;;;;;27.05;29.77;98922.50;67568;1283;1016447;-65
2024/03/14 12:49:36;;;;;;;;;;;;;;;27.08;28.47;98922.48;67573;1283;1016401;-66
2024/03/14 12:52:38;;;;;;;;;;;;;;;26.80;28.55;98921.64;67530;1283;1016456;-67
2024/03/14 12:55:43;;;;;;;;;;;;;;;26.83;28.50;98923.78;67567;1283;1016332;-68
2024/03/14 12:58:45;;;;;;;;;;;;;;;26.10;27.45;98925.91;67598;1283;1016443;-67
2024/03/14 13:01:48;;;;;;;;;;;;;;;25.63;29.16;98927.64;67561;1283;1016947;-67
2024/03/14 13:04:50;;;;;;;;;;;;;;;25.43;29.33;98924.46;67535;1283;1016324;-66
2024/03/14 13:07:53;;;;;;;;;;;;;;;25.25;29.42;98925.03;67546;1283;1016416;-66
2024/03/14 13:10:55;;;;;;;;;;;;;;;25.25;29.36;98925.38;67563;1283;1016432;-66
2024/03/14 13:13:58;;;;;;;;;;;;;;;24.32;30.59;98927.52;67594;1282;1018889;-66
2024/03/14 13:17:05;;;;;;;;;;;;;;;24.18;30.84;98924.71;67566;1283;1016099;-67
2024/03/14 13:20:08;;;;;;;;;;;;;;;23.80;31.25;98923.07;67563;1283;1016070;-65
2024/03/14 13:23:12;;;;;;;;;;;;;;;23.48;31.34;98921.42;67562;1283;1016500;-68
2024/03/14 13:26:17;;;;;;;;;;;;;;;23.41;31.69;98919.45;67535;1282;1016283;-67
2024/03/14 13:29:22;;;;;;;;;;;;;;;23.35;31.80;98924.36;67578;1283;1016528;-67
2024/03/14 13:32:28;;;;;;;;;;;;;;;23.16;32.20;98925.59;67582;1283;1018861;-68
2024/03/14 13:35:31;;;;;;;;;;;;;;;23.21;32.27;98923.83;67540;1283;1016166;-64
2024/03/14 13:38:34;;;;;;;;;;;;;;;23.06;32.43;98920.34;67575;1283;1016385;-67
2024/03/14 13:41:40;;;;;;;;;;;;;;;22.87;33.00;98921.86;67531;1283;1016297;-67
2024/03/14 13:44:42;;;;;;;;;;;;;;;22.88;32.85;98919.05;67561;1283;1016360;-67
2024/03/14 13:47:46;;;;;;;;;;;;;;;22.61;33.18;98919.66;67539;1283;1016927;-67
2024/03/14 13:50:48;;;;;;;;;;;;;;;22.81;32.96;98924.26;67545;1283;1017139;-64
2024/03/14 13:53:51;;;;;;;;;;;;;;;23.23;32.44;98924.44;67551;1283;1017029;-65
2024/03/14 13:56:53;;;;;;;;;;;;;;;23.24;32.46;98922.39;67518;1283;1016469;-67
2024/03/14 14:00:00;;;;;;;;;;;;;;;23.14;32.63;98922.39;67601;1283;1016851;-67
2024/03/14 14:03:04;;;;;;;;;;;;;;;23.01;32.84;98925.13;67571;1283;1016355;-66
2024/03/14 14:06:07;;;;;;;;;;;;;;;22.94;32.72;98921.95;67583;1283;1016931;-67
2024/03/14 14:09:10;;;;;;;;;;;;;;;22.80;32.88;98921.02;67540;1282;1016510;-64
2024/03/14 14:12:13;;;;;;;;;;;;;;;22.72;33.02;98918.68;67527;1281;1016455;-66
2024/03/14 14:15:17;;;;;;;;;;;;;;;22.29;33.44;98918.88;67595;1283;1015871;-66
2024/03/14 14:18:19;;;;;;;;;;;;;;;22.14;33.78;98920.48;67525;1283;1016449;-68
2024/03/14 14:21:23;;;;;;;;;;;;;;;22.02;34.00;98920.70;67576;1283;1016412;-66
2024/03/14 14:24:26;;;;;;;;;;;;;;;22.21;33.87;98920.75;67589;1283;1016456;-67
2024/03/14 14:27:30;;;;;;;;;;;;;;;22.22;34.00;98920.28;67579;1283;1016107;-67
2024/03/14 14:30:33;;;;;;;;;;;;;;;22.48;33.62;98918.64;67533;1283;1016263;-67
2024/03/14 14:33:35;;;;;;;;;;;;;;;22.49;33.37;98920.67;67525;1283;1017019;-67
2024/03/14 14:36:38;;;;;;;;;;;;;;;22.53;33.41;98920.95;67563;1283;1016325;-68
2024/03/14 14:39:40;;;;;;;;;;;;;;;22.44;33.40;98918.34;67593;1283;1016863;-68
2024/03/14 14:42:43;;;;;;;;;;;;;;;22.51;33.42;98916.74;67547;1283;1016493;-68
2024/03/14 14:45:45;;;;;;;;;;;;;;;22.39;33.60;98913.20;67560;1283;1015829;-68
2024/03/14 14:48:48;;;;;;;;;;;;;;;22.35;33.45;98909.88;67587;1283;1016504;-68
2024/03/14 14:51:50;;;;;;;;;;;;;;;22.32;33.73;98906.45;67578;1283;1015832;-67
2024/03/14 14:54:52;;;;;;;;;;;;;;;22.23;33.82;98907.90;67560;1283;1016053;-67
2024/03/14 14:57:57;;;;;;;;;;;;;;;22.27;33.82;98907.71;67563;1282;1016450;-66
2024/03/14 15:00:59;;;;;;;;;;;;;;;22.54;33.42;98901.10;67547;1283;1016355;-68
2024/03/14 15:04:02;;;;;;;;;;;;;;;22.38;33.59;98902.38;67560;1282;1016589;-68
2024/03/14 15:07:05;;;;;;;;;;;;;;;22.32;33.60;98902.56;67620;1283;1016757;-63
2024/03/14 15:10:10;;;;;;;;;;;;;;;22.28;33.65;98902.96;67564;1283;1016442;-68
2024/03/14 15:13:13;;;;;;;;;;;;;;;22.18;33.88;98904.05;67600;1283;1016165;-63
2024/03/14 15:16:16;;;;;;;;;;;;;;;22.17;33.99;98907.69;67535;1283;1016471;-67
2024/03/14 15:19:18;;;;;;;;;;;;;;;22.22;33.95;98908.06;67532;1283;1016500;-65
2024/03/14 15:22:21;;;;;;;;;;;;;;;22.10;34.05;98908.39;67573;1283;1016340;-68
2024/03/14 15:25:24;;;;;;;;;;;;;;;21.92;34.35;98909.42;67580;1283;1016336;-68
2024/03/14 15:28:27;;;;;;;;;;;;;;;21.69;34.67;98909.45;67550;1283;1018171;-67
2024/03/14 15:31:30;;;;;;;;;;;;;;;21.52;34.80;98908.67;67571;1283;1016234;-68
2024/03/14 15:34:32;;;;;;;;;;;;;;;21.26;35.11;98911.61;67568;1283;1016464;-68